Home   Weather   Northern Ireland   Past weeks
Flag for United Kingdom

Past Weather in Northern Ireland, Northern Ireland, United Kingdom — July 2022

Currently: 57 °F. Passing clouds. (Weather station: Belfast / Aldergrove Airport, United Kingdom). See more current weather

July 2022 Weather in Northern Ireland — Graph

°F

High & Low Weather Summary for July 2022

 TemperatureHumidityPressure
High86 °F (Jul 18, 3:50 pm)100% (Jul 1, 4:20 am)30.54 "Hg (Jul 1, 4:20 am)
Low43 °F (Jul 27, 4:20 am)40% (Jul 18, 2:50 pm)29.53 "Hg (Jul 24, 4:50 pm)
Average60 °F80%30.11 "Hg
* Reported Jul 1 12:20 am — Jul 31 11:50 pm, Northern Ireland. Weather by CustomWeather, © 2024

Note: Actual official high and low records may vary slightly from our data, if they occured in-between our weather recording intervals... More about our weather records

Northern Ireland Weather History for July 1, 2022

Scroll right to see more
 ConditionsComfort  
Time TempWeatherWind HumidityBarometerVisibility
12:20 am
Fri, Jul 1
57 °FPassing clouds.6 mph82%29.89 "HgN/A
2:20 am54 °FCool.2 mph88%29.89 "HgN/A
2:50 am54 °FPassing clouds.2 mph94%29.89 "HgN/A
3:20 am54 °FCool.1 mph88%29.89 "HgN/A
3:50 am52 °FCool.2 mph94%29.89 "HgN/A
4:20 am52 °FPassing clouds.2 mph100%29.89 "HgN/A
4:50 am54 °FPassing clouds.2 mph94%29.89 "HgN/A
5:20 am52 °FPassing clouds.2 mph100%29.89 "HgN/A
5:50 am52 °FPassing clouds.1 mph100%29.89 "HgN/A
6:20 am54 °FCool.3 mph88%29.89 "HgN/A
6:50 am54 °FCool.5 mph88%29.89 "HgN/A
7:20 am54 °FCool.2 mph88%29.89 "HgN/A
7:50 am55 °FCool.3 mph82%29.89 "HgN/A
8:20 am55 °FPassing clouds.6 mph88%29.89 "HgN/A
9:20 am57 °FScattered clouds.8 mph77%29.89 "HgN/A
9:50 am59 °FPartly sunny.7 mph72%29.89 "HgN/A
10:20 am57 °FPassing clouds.8 mph72%29.89 "HgN/A
10:50 am57 °FPassing clouds.7 mph77%29.89 "HgN/A
11:20 am57 °FBroken clouds.8 mph72%29.89 "HgN/A
11:50 am59 °FPartly sunny.6 mph72%29.86 "HgN/A
12:20 pm57 °FLight rain. Partly sunny.5 mph77%29.86 "HgN/A
12:50 pm59 °FScattered clouds.6 mph77%29.86 "HgN/A
1:20 pm59 °FDrizzle. Partly sunny.6 mph72%29.86 "HgN/A
1:50 pm59 °FScattered clouds.6 mph77%29.86 "HgN/A
2:20 pm61 °FPartly sunny.9 mph68%29.86 "HgN/A
2:50 pm61 °FBroken clouds.9 mph63%29.86 "HgN/A
3:20 pm61 °FPassing clouds.9 mph68%29.83 "HgN/A
3:50 pm61 °FScattered clouds.12 mph68%29.83 "HgN/A
4:20 pm61 °FPartly sunny.14 mph68%29.83 "HgN/A
4:50 pm63 °FPassing clouds.13 mph68%29.83 "HgN/A
5:50 pm55 °FScattered clouds.9 mph94%29.83 "HgN/A
6:20 pm57 °FRain. Overcast.7 mph82%29.83 "Hg4 mi
6:50 pm57 °FPassing clouds.6 mph82%29.83 "HgN/A
7:20 pm57 °FBroken clouds.6 mph88%29.80 "HgN/A
7:50 pm55 °FLight rain. Partly sunny.7 mph94%29.80 "HgN/A
8:20 pm57 °FScattered clouds.10 mph88%29.80 "HgN/A
8:50 pm57 °FPartly sunny.9 mph88%29.80 "HgN/A
9:20 pm57 °FScattered clouds.7 mph88%29.80 "HgN/A
9:50 pm57 °FPartly sunny.7 mph88%29.80 "HgN/A
10:20 pm55 °FPartly cloudy.9 mph94%29.80 "HgN/A
10:50 pm55 °FPassing clouds.9 mph94%29.80 "HgN/A
11:20 pm54 °FPassing clouds.7 mph88%29.83 "HgN/A
11:50 pm52 °FCool.6 mph94%29.80 "HgN/A
Weather by CustomWeather, © 2024

See weather overview